createdAt,value
2022-12-03T00:01:39.705Z,4.74
2022-12-03T00:04:06.042Z,4.57
2022-12-03T00:06:34.644Z,4.71
2022-12-03T00:09:01.210Z,4.71
2022-12-03T00:11:27.450Z,4.90
2022-12-03T00:13:53.688Z,4.91
2022-12-03T00:16:20.016Z,4.92
2022-12-03T00:18:46.345Z,4.77
2022-12-03T00:21:12.605Z,4.71
2022-12-03T00:23:42.282Z,4.58
2022-12-03T00:26:08.821Z,4.63
2022-12-03T00:28:35.083Z,4.50
2022-12-03T00:31:01.416Z,4.56
2022-12-03T00:33:27.738Z,4.61
2022-12-03T00:35:53.990Z,4.56
2022-12-03T00:38:20.253Z,4.54
2022-12-03T00:40:46.502Z,4.57
2022-12-03T00:43:12.789Z,4.47
2022-12-03T00:45:39.031Z,4.55
2022-12-03T00:48:05.270Z,4.52
2022-12-03T00:50:31.530Z,4.40
2022-12-03T00:52:57.791Z,4.48
2022-12-03T00:55:24.035Z,4.46
2022-12-03T00:57:50.309Z,4.46
2022-12-03T01:00:16.558Z,4.56
2022-12-03T01:02:42.799Z,4.58
2022-12-03T01:05:09.144Z,4.44
2022-12-03T01:07:35.592Z,4.35
2022-12-03T01:10:01.897Z,4.46
2022-12-03T01:12:28.142Z,4.45
2022-12-03T01:14:54.637Z,4.36
2022-12-03T01:17:21.057Z,4.29
2022-12-03T01:19:48.525Z,4.28
2022-12-03T01:22:15.050Z,4.27
2022-12-03T01:24:41.350Z,4.25
2022-12-03T01:27:07.597Z,4.16
2022-12-03T01:29:33.856Z,4.25
2022-12-03T01:32:00.135Z,4.25
2022-12-03T01:34:26.402Z,4.25
2022-12-03T01:36:52.660Z,4.16
2022-12-03T01:39:18.930Z,4.15
2022-12-03T01:41:45.183Z,4.10
2022-12-03T01:44:11.422Z,4.16
2022-12-03T01:46:37.762Z,4.19
2022-12-03T01:49:04.057Z,4.10
2022-12-03T01:51:30.321Z,4.15
2022-12-03T01:53:56.567Z,4.19
2022-12-03T01:56:22.822Z,4.13
2022-12-03T01:58:49.092Z,4.07
2022-12-03T02:01:15.387Z,4.13
2022-12-03T02:03:41.725Z,4.01
2022-12-03T02:06:08.029Z,3.97
2022-12-03T02:08:34.270Z,3.99
2022-12-03T02:11:01.182Z,3.97
2022-12-03T02:13:27.506Z,4.05
2022-12-03T02:15:53.845Z,3.96
2022-12-03T02:18:20.131Z,3.97
2022-12-03T02:20:46.397Z,3.94
2022-12-03T02:23:12.638Z,3.93
2022-12-03T02:25:38.922Z,3.97
2022-12-03T02:28:05.181Z,3.88
2022-12-03T02:30:31.422Z,3.95
2022-12-03T02:32:57.686Z,3.79
2022-12-03T02:35:23.932Z,3.90
2022-12-03T02:37:50.170Z,3.82
2022-12-03T02:40:16.437Z,4.01
2022-12-03T02:42:42.708Z,3.98
2022-12-03T02:45:08.950Z,3.96
2022-12-03T02:47:35.220Z,3.93
2022-12-03T02:50:01.506Z,3.96
2022-12-03T02:52:27.779Z,3.91
2022-12-03T02:54:54.206Z,4.01
2022-12-03T02:57:20.613Z,3.92
2022-12-03T02:59:46.858Z,3.99
2022-12-03T03:02:13.174Z,4.03
2022-12-03T03:04:39.462Z,4.07
2022-12-03T03:07:05.708Z,3.97
2022-12-03T03:09:31.947Z,3.94
2022-12-03T03:11:58.215Z,4.00
2022-12-03T03:14:24.463Z,3.94
2022-12-03T03:16:50.809Z,3.78
2022-12-03T03:19:17.125Z,3.67
2022-12-03T03:21:43.365Z,3.70
2022-12-03T03:24:09.617Z,3.64
2022-12-03T03:26:35.870Z,3.65
2022-12-03T03:29:02.127Z,3.75
2022-12-03T03:31:28.482Z,3.72
2022-12-03T03:33:54.770Z,3.68
2022-12-03T03:36:21.014Z,3.71
2022-12-03T03:38:47.263Z,3.71
2022-12-03T03:41:13.519Z,3.69
2022-12-03T03:43:39.799Z,3.64
2022-12-03T03:46:06.079Z,3.72
2022-12-03T03:48:32.420Z,3.70
2022-12-03T03:50:58.681Z,3.72
2022-12-03T03:53:24.933Z,3.72
2022-12-03T03:55:51.192Z,3.65
2022-12-03T03:58:17.434Z,3.70
2022-12-03T04:00:43.734Z,3.72
2022-12-03T04:03:10.057Z,3.75
2022-12-03T04:05:36.320Z,3.59
2022-12-03T04:08:02.657Z,3.60
2022-12-03T04:10:28.988Z,3.61
2022-12-03T04:12:55.253Z,3.63
2022-12-03T04:15:21.527Z,3.52
2022-12-03T04:17:47.809Z,3.57
2022-12-03T04:20:14.054Z,3.49
2022-12-03T04:22:40.309Z,3.35
2022-12-03T04:25:06.563Z,3.24
2022-12-03T04:27:32.824Z,3.37
2022-12-03T04:29:59.187Z,3.44
2022-12-03T04:32:25.457Z,3.54
2022-12-03T04:34:52.197Z,3.53
2022-12-03T04:37:18.823Z,3.59
2022-12-03T04:39:45.085Z,3.58
2022-12-03T04:42:11.363Z,3.45
2022-12-03T04:44:37.637Z,3.40
2022-12-03T04:47:03.897Z,3.47
2022-12-03T04:49:30.168Z,3.45
2022-12-03T04:51:56.411Z,3.51
2022-12-03T04:54:22.651Z,3.58
2022-12-03T04:56:48.898Z,3.64
2022-12-03T04:59:16.565Z,3.59
2022-12-03T05:01:43.140Z,3.65
2022-12-03T05:04:09.429Z,3.75
2022-12-03T05:06:35.676Z,3.81
2022-12-03T05:09:01.989Z,3.64
2022-12-03T05:11:28.264Z,3.69
2022-12-03T05:13:54.521Z,3.70
2022-12-03T05:16:20.850Z,3.61
2022-12-03T05:18:47.125Z,3.54
2022-12-03T05:21:13.385Z,3.58
2022-12-03T05:23:39.669Z,3.54
2022-12-03T05:26:05.934Z,3.50
2022-12-03T05:28:32.193Z,3.59
2022-12-03T05:30:58.491Z,3.51
2022-12-03T05:33:24.813Z,3.53
2022-12-03T05:35:51.118Z,3.55
2022-12-03T05:38:17.386Z,3.68
2022-12-03T05:40:43.641Z,3.68
2022-12-03T05:43:09.882Z,3.80
2022-12-03T05:45:36.163Z,3.62
2022-12-03T05:48:02.432Z,3.62
2022-12-03T05:50:28.686Z,3.66
2022-12-03T05:52:54.929Z,3.74
2022-12-03T05:55:21.189Z,3.74
2022-12-03T05:57:47.439Z,3.57
2022-12-03T06:00:13.700Z,3.55
2022-12-03T06:02:40.030Z,3.50
2022-12-03T06:05:06.377Z,3.52
2022-12-03T06:07:32.674Z,3.65
2022-12-03T06:09:58.977Z,3.51
2022-12-03T06:12:25.230Z,3.63
2022-12-03T06:14:51.814Z,3.62
2022-12-03T06:17:18.362Z,3.65
2022-12-03T06:19:44.623Z,3.64
2022-12-03T06:22:10.881Z,3.53
2022-12-03T06:24:37.167Z,3.57
2022-12-03T06:27:03.464Z,3.63
2022-12-03T06:29:29.727Z,3.62
2022-12-03T06:31:55.985Z,3.59
2022-12-03T06:34:22.367Z,3.38
2022-12-03T06:36:48.641Z,3.42
2022-12-03T06:39:14.929Z,3.50
2022-12-03T06:41:41.207Z,3.60
2022-12-03T06:44:07.450Z,3.60
2022-12-03T06:46:33.775Z,3.59
2022-12-03T06:49:00.086Z,3.59
2022-12-03T06:51:26.329Z,3.53
2022-12-03T06:53:52.591Z,3.60
2022-12-03T06:56:22.052Z,3.65
2022-12-03T06:58:48.843Z,3.54
2022-12-03T07:01:15.127Z,3.56
2022-12-03T07:03:41.471Z,3.60
2022-12-03T07:06:07.718Z,3.51
2022-12-03T07:08:33.993Z,3.52
2022-12-03T07:11:00.240Z,3.54
2022-12-03T07:13:26.486Z,3.67
2022-12-03T07:15:52.775Z,3.65
2022-12-03T07:18:19.100Z,3.68
2022-12-03T07:20:45.359Z,3.66
2022-12-03T07:23:11.616Z,3.74
2022-12-03T07:25:37.873Z,3.60
2022-12-03T07:28:19.207Z,3.60
2022-12-03T07:30:45.447Z,3.70
2022-12-03T07:33:11.724Z,3.72
2022-12-03T07:35:37.966Z,3.76
2022-12-03T07:38:04.225Z,3.63
2022-12-03T07:40:30.493Z,3.72
2022-12-03T07:42:56.747Z,3.72
2022-12-03T07:45:22.990Z,3.49
2022-12-03T07:47:49.257Z,3.58
2022-12-03T07:50:15.519Z,3.57
2022-12-03T07:52:41.790Z,3.58
2022-12-03T07:55:08.035Z,3.72
2022-12-03T07:57:34.281Z,3.70
2022-12-03T08:00:00.536Z,3.74
2022-12-03T08:02:26.825Z,3.78
2022-12-03T08:04:53.323Z,3.79
2022-12-03T08:07:19.780Z,3.77
2022-12-03T08:09:46.021Z,3.71
2022-12-03T08:12:12.277Z,3.81
2022-12-03T08:14:38.542Z,3.84
2022-12-03T08:17:04.802Z,3.81
2022-12-03T08:19:31.077Z,3.76
2022-12-03T08:22:01.207Z,3.80
2022-12-03T08:24:27.898Z,3.79
2022-12-03T08:26:54.157Z,3.76
2022-12-03T08:29:20.429Z,3.76
2022-12-03T08:31:46.712Z,3.72
2022-12-03T08:34:13.022Z,3.58
2022-12-03T08:36:39.284Z,3.71
2022-12-03T08:39:05.527Z,3.82
2022-12-03T08:41:31.771Z,3.71
2022-12-03T08:43:58.025Z,3.82
2022-12-03T08:46:24.332Z,3.82
2022-12-03T08:48:50.663Z,3.88
2022-12-03T08:51:16.921Z,3.93
2022-12-03T08:53:43.172Z,3.87
2022-12-03T08:56:09.437Z,3.99
2022-12-03T08:58:35.677Z,4.11
2022-12-03T09:01:02.012Z,3.99
2022-12-03T09:03:28.285Z,3.97
2022-12-03T09:05:54.530Z,3.91
2022-12-03T09:08:20.827Z,3.93
2022-12-03T09:10:47.121Z,4.08
2022-12-03T09:13:13.371Z,4.07
2022-12-03T09:15:39.620Z,3.99
2022-12-03T09:18:05.861Z,3.93
2022-12-03T09:20:32.106Z,4.04
2022-12-03T09:22:58.352Z,4.07
2022-12-03T09:25:24.606Z,4.06
2022-12-03T09:27:50.895Z,3.94
2022-12-03T09:30:17.150Z,4.11
2022-12-03T09:32:43.400Z,4.15
2022-12-03T09:35:09.670Z,4.06
2022-12-03T09:37:35.937Z,4.07
2022-12-03T09:40:02.224Z,4.06
2022-12-03T09:42:28.482Z,4.03
2022-12-03T09:44:55.064Z,4.08
2022-12-03T09:47:21.669Z,4.10
2022-12-03T09:49:47.909Z,4.08
2022-12-03T09:52:14.163Z,4.14
2022-12-03T09:54:45.561Z,4.14
2022-12-03T09:57:13.449Z,4.19
2022-12-03T09:59:39.693Z,4.16
2022-12-03T10:02:06.006Z,4.26
2022-12-03T10:04:32.366Z,4.35
2022-12-03T10:06:58.638Z,4.19
2022-12-03T10:09:24.898Z,4.19
2022-12-03T10:11:51.163Z,4.24
2022-12-03T10:14:17.426Z,4.19
2022-12-03T10:16:43.782Z,4.24
2022-12-03T10:19:10.128Z,4.26
2022-12-03T10:21:36.369Z,4.16
2022-12-03T10:24:02.640Z,4.27
2022-12-03T10:26:28.904Z,4.30
2022-12-03T10:28:55.142Z,4.27
2022-12-03T10:31:21.423Z,4.33
2022-12-03T10:33:47.739Z,4.30
2022-12-03T10:36:14.003Z,4.28
2022-12-03T10:38:40.273Z,4.20
2022-12-03T10:41:06.513Z,4.16
2022-12-03T10:43:32.755Z,4.15
2022-12-03T10:46:03.524Z,4.28
2022-12-03T10:48:30.587Z,4.36
2022-12-03T10:50:56.841Z,4.33
2022-12-03T10:53:23.088Z,4.24
2022-12-03T10:55:49.336Z,4.33
2022-12-03T10:58:15.582Z,4.19
2022-12-03T11:00:41.850Z,4.20
2022-12-03T11:03:08.119Z,4.10
2022-12-03T11:05:34.387Z,4.16
2022-12-03T11:08:00.690Z,4.16
2022-12-03T11:10:26.974Z,3.99
2022-12-03T11:12:53.222Z,3.96
2022-12-03T11:15:19.479Z,3.97
2022-12-03T11:17:45.747Z,4.12
2022-12-03T11:20:11.991Z,4.20
2022-12-03T11:22:38.262Z,4.24
2022-12-03T11:25:04.506Z,4.26
2022-12-03T11:27:30.811Z,4.19
2022-12-03T11:29:57.080Z,4.29
2022-12-03T11:32:25.942Z,4.33
2022-12-03T11:34:55.715Z,4.20
2022-12-03T11:37:22.080Z,4.26
2022-12-03T11:39:48.346Z,4.16
2022-12-03T11:42:14.595Z,4.16
2022-12-03T11:44:40.840Z,4.10
2022-12-03T11:47:07.139Z,4.12
2022-12-03T11:49:33.427Z,3.93
2022-12-03T11:51:59.664Z,4.12
2022-12-03T11:54:25.916Z,4.16
2022-12-03T11:56:52.177Z,4.24
2022-12-03T11:59:18.422Z,4.26
2022-12-03T12:01:44.687Z,4.22
2022-12-03T12:04:11.005Z,4.19
2022-12-03T12:06:37.301Z,4.20
2022-12-03T12:09:03.574Z,4.30
2022-12-03T12:11:29.827Z,4.37
2022-12-03T12:13:56.067Z,4.41
2022-12-03T12:16:22.350Z,4.17
2022-12-03T12:18:53.737Z,4.24
2022-12-03T12:21:21.229Z,4.29
2022-12-03T12:23:47.595Z,4.30
2022-12-03T12:26:13.891Z,4.29
2022-12-03T12:28:40.157Z,4.33
2022-12-03T12:31:06.427Z,4.27
2022-12-03T12:33:32.703Z,4.22
2022-12-03T12:35:58.976Z,4.29
2022-12-03T12:38:25.241Z,4.22
2022-12-03T12:40:51.509Z,4.31
2022-12-03T12:43:23.337Z,4.36
2022-12-03T12:45:50.205Z,4.38
2022-12-03T12:48:16.447Z,4.44
2022-12-03T12:50:42.712Z,4.45
2022-12-03T12:53:08.966Z,4.48
2022-12-03T12:55:35.235Z,4.51
2022-12-03T12:58:01.493Z,4.48
2022-12-03T13:00:27.801Z,4.50
2022-12-03T13:02:54.255Z,4.48
2022-12-03T13:05:20.562Z,4.51
2022-12-03T13:07:46.826Z,4.49
2022-12-03T13:10:13.116Z,4.42
2022-12-03T13:12:39.364Z,4.44
2022-12-03T13:15:05.611Z,4.43
2022-12-03T13:17:31.857Z,4.57
2022-12-03T13:20:05.417Z,4.63
2022-12-03T13:22:33.242Z,4.61
2022-12-03T13:24:59.493Z,4.60
2022-12-03T13:27:25.753Z,4.63
2022-12-03T13:29:52.430Z,4.46
2022-12-03T13:32:18.979Z,4.60
2022-12-03T13:34:45.220Z,4.56
2022-12-03T13:37:11.469Z,4.59
2022-12-03T13:39:37.730Z,4.69
2022-12-03T13:42:03.992Z,4.62
2022-12-03T13:44:30.253Z,4.54
2022-12-03T13:46:56.524Z,4.60
2022-12-03T13:49:22.774Z,4.41
2022-12-03T13:51:49.045Z,4.49
2022-12-03T13:54:16.219Z,4.43
2022-12-03T13:56:42.570Z,4.47
2022-12-03T13:59:08.822Z,4.50
2022-12-03T14:01:35.146Z,4.52
2022-12-03T14:04:01.471Z,4.53
2022-12-03T14:06:27.736Z,4.57
2022-12-03T14:08:53.994Z,4.55
2022-12-03T14:11:20.238Z,4.59
2022-12-03T14:13:46.478Z,4.59
2022-12-03T14:16:12.821Z,4.68
2022-12-03T14:18:39.117Z,4.66
2022-12-03T14:21:05.362Z,4.68
2022-12-03T14:23:31.621Z,4.58
2022-12-03T14:25:57.857Z,4.70
2022-12-03T14:28:24.098Z,4.65
2022-12-03T14:30:50.363Z,4.68
2022-12-03T14:33:16.612Z,4.64
2022-12-03T14:35:42.873Z,4.64
2022-12-03T14:38:09.116Z,4.67
2022-12-03T14:40:35.366Z,4.67
2022-12-03T14:43:01.607Z,4.61
2022-12-03T14:45:27.909Z,4.53
2022-12-03T14:47:54.201Z,4.55
2022-12-03T14:50:20.443Z,4.64
2022-12-03T14:52:46.691Z,4.58
2022-12-03T14:55:12.957Z,4.52
2022-12-03T14:57:39.247Z,4.59
2022-12-03T15:00:05.526Z,4.49
2022-12-03T15:02:31.851Z,4.51
2022-12-03T15:04:58.151Z,4.44
2022-12-03T15:07:24.426Z,4.46
2022-12-03T15:09:50.696Z,4.56
2022-12-03T15:12:16.939Z,4.60
2022-12-03T15:14:43.216Z,4.51
2022-12-03T15:17:09.538Z,4.45
2022-12-03T15:19:35.812Z,4.49
2022-12-03T15:22:02.073Z,4.43
2022-12-03T15:24:28.337Z,4.39
2022-12-03T15:26:54.592Z,4.44
2022-12-03T15:29:20.855Z,4.44
2022-12-03T15:31:47.172Z,4.26
2022-12-03T15:34:18.771Z,4.34
2022-12-03T15:36:48.265Z,4.25
2022-12-03T15:39:14.525Z,4.33
2022-12-03T15:41:40.790Z,4.39
2022-12-03T15:44:07.047Z,4.36
2022-12-03T15:46:33.304Z,4.39
2022-12-03T15:48:59.564Z,4.34
2022-12-03T15:51:25.830Z,4.22
2022-12-03T15:53:52.077Z,4.25
2022-12-03T15:56:18.341Z,4.24
2022-12-03T15:58:44.593Z,4.30
2022-12-03T16:01:10.889Z,4.26
2022-12-03T16:03:37.239Z,4.17
2022-12-03T16:06:03.536Z,4.23
2022-12-03T16:08:29.802Z,4.11
2022-12-03T16:10:56.069Z,4.18
2022-12-03T16:13:22.321Z,4.22
2022-12-03T16:15:48.645Z,4.14
2022-12-03T16:18:14.901Z,4.16
2022-12-03T16:20:41.158Z,4.23
2022-12-03T16:23:07.402Z,4.13
2022-12-03T16:25:33.649Z,4.18
2022-12-03T16:27:59.935Z,4.18
2022-12-03T16:30:26.183Z,4.31
2022-12-03T16:32:52.423Z,4.25
2022-12-03T16:35:18.700Z,4.24
2022-12-03T16:37:44.975Z,4.23
2022-12-03T16:40:11.215Z,4.22
2022-12-03T16:42:37.458Z,4.29
2022-12-03T16:45:03.713Z,4.17
2022-12-03T16:47:33.908Z,4.12
2022-12-03T16:50:00.807Z,4.10
2022-12-03T16:52:27.122Z,4.09
2022-12-03T16:54:53.365Z,4.12
2022-12-03T16:57:19.634Z,4.15
2022-12-03T16:59:45.887Z,4.12
2022-12-03T17:02:12.187Z,4.04
2022-12-03T17:04:38.503Z,4.04
2022-12-03T17:07:04.758Z,4.02
2022-12-03T17:09:31.011Z,4.12
2022-12-03T17:11:57.252Z,4.18
2022-12-03T17:14:26.232Z,4.15
2022-12-03T17:16:54.801Z,4.15
2022-12-03T17:19:21.048Z,4.26
2022-12-03T17:21:47.302Z,4.09
2022-12-03T17:24:13.565Z,4.17
2022-12-03T17:26:39.815Z,4.12
2022-12-03T17:29:06.067Z,4.14
2022-12-03T17:31:36.992Z,4.10
2022-12-03T17:34:06.469Z,4.18
2022-12-03T17:36:32.726Z,4.16
2022-12-03T17:38:58.998Z,4.12
2022-12-03T17:41:25.278Z,4.10
2022-12-03T17:43:51.541Z,4.12
2022-12-03T17:46:17.867Z,4.09
2022-12-03T17:48:44.151Z,4.19
2022-12-03T17:51:10.395Z,4.23
2022-12-03T17:53:36.636Z,4.22
2022-12-03T17:56:02.905Z,4.22
2022-12-03T17:58:29.158Z,4.23
2022-12-03T18:01:00.466Z,4.27
2022-12-03T18:03:28.920Z,4.05
2022-12-03T18:05:55.173Z,4.06
2022-12-03T18:08:21.459Z,4.19
2022-12-03T18:10:47.784Z,4.14
2022-12-03T18:13:14.055Z,4.08
2022-12-03T18:15:40.353Z,4.04
2022-12-03T18:18:06.611Z,4.07
2022-12-03T18:20:32.863Z,4.10
2022-12-03T18:22:59.108Z,4.18
2022-12-03T18:25:25.342Z,4.21
2022-12-03T18:27:51.600Z,4.14
2022-12-03T18:30:17.857Z,4.07
2022-12-03T18:32:44.121Z,4.13
2022-12-03T18:35:10.366Z,4.17
2022-12-03T18:37:36.608Z,4.14
2022-12-03T18:40:12.143Z,4.17
2022-12-03T18:42:39.198Z,4.21
2022-12-03T18:45:05.548Z,4.36
2022-12-03T18:47:31.896Z,4.29
2022-12-03T18:49:58.371Z,4.35
2022-12-03T18:52:24.819Z,4.22
2022-12-03T18:54:51.093Z,4.30
2022-12-03T18:57:17.343Z,4.29
2022-12-03T18:59:43.606Z,4.26
2022-12-03T19:02:09.945Z,4.36
2022-12-03T19:04:36.230Z,4.38
2022-12-03T19:07:02.526Z,4.41
2022-12-03T19:09:28.787Z,4.42
2022-12-03T19:11:55.049Z,4.32
2022-12-03T19:14:21.304Z,4.33
2022-12-03T19:16:47.594Z,4.24
2022-12-03T19:19:13.865Z,4.36
2022-12-03T19:21:40.130Z,4.38
2022-12-03T19:26:52.625Z,4.29
2022-12-03T19:29:18.891Z,4.27
2022-12-03T19:31:45.179Z,4.27
2022-12-03T19:34:11.450Z,4.23
2022-12-03T19:36:37.705Z,4.33
2022-12-03T19:39:03.950Z,4.42
2022-12-03T19:41:30.219Z,4.36
2022-12-03T19:43:56.499Z,4.38
2022-12-03T19:46:22.790Z,4.39
2022-12-03T19:48:49.118Z,4.30
2022-12-03T19:51:33.488Z,4.36
2022-12-03T19:54:00.201Z,4.35
2022-12-03T19:56:26.464Z,4.29
2022-12-03T19:58:52.716Z,4.34
2022-12-03T20:01:19.029Z,4.31
2022-12-03T20:03:45.349Z,4.40
2022-12-03T20:06:11.610Z,4.27
2022-12-03T20:08:37.883Z,4.30
2022-12-03T20:11:04.139Z,4.35
2022-12-03T20:13:34.981Z,4.38
2022-12-03T20:16:02.818Z,4.32
2022-12-03T20:18:29.159Z,4.26
2022-12-03T20:20:55.516Z,4.36
2022-12-03T20:23:21.758Z,4.35
2022-12-03T20:25:48.015Z,4.41
2022-12-03T20:28:14.275Z,4.46
2022-12-03T20:30:40.519Z,4.46
2022-12-03T20:33:06.763Z,4.43
2022-12-03T20:35:33.024Z,4.42
2022-12-03T20:37:59.271Z,4.44
2022-12-03T20:40:25.517Z,4.47
2022-12-03T20:42:51.777Z,4.39
2022-12-03T20:45:18.046Z,4.47
2022-12-03T20:47:44.286Z,4.38
2022-12-03T20:50:10.546Z,4.39
2022-12-03T20:52:36.787Z,4.42
2022-12-03T20:55:03.069Z,4.26
2022-12-03T20:57:29.332Z,4.33
2022-12-03T20:59:55.963Z,4.44
2022-12-03T21:02:22.456Z,4.49
2022-12-03T21:04:48.747Z,4.55
2022-12-03T21:07:15.014Z,4.34
2022-12-03T21:09:41.290Z,4.32
2022-12-03T21:12:07.537Z,4.35
2022-12-03T21:14:33.800Z,4.42
2022-12-03T21:17:08.385Z,4.35
2022-12-03T21:19:35.269Z,4.34
2022-12-03T21:22:01.525Z,4.31
2022-12-03T21:24:27.785Z,4.31
2022-12-03T21:26:54.030Z,4.34
2022-12-03T21:29:20.272Z,4.43
2022-12-03T21:31:46.540Z,4.37
2022-12-03T21:34:12.789Z,4.41
2022-12-03T21:36:39.070Z,4.44
2022-12-03T21:39:05.329Z,4.41
2022-12-03T21:41:31.578Z,4.42
2022-12-03T21:43:57.822Z,4.46
2022-12-03T21:47:09.672Z,4.41
2022-12-03T21:49:10.283Z,4.43
2022-12-03T21:51:36.538Z,4.46
2022-12-03T21:54:02.802Z,4.48
2022-12-03T21:56:29.051Z,4.49
2022-12-03T21:58:55.320Z,4.47
2022-12-03T22:01:21.768Z,4.48
2022-12-03T22:03:48.059Z,4.53
2022-12-03T22:06:14.324Z,4.52
2022-12-03T22:08:40.588Z,4.48
2022-12-03T22:11:06.845Z,4.46
2022-12-03T22:13:33.090Z,4.48
2022-12-03T22:15:59.417Z,4.56
2022-12-03T22:18:25.756Z,4.54
2022-12-03T22:20:52.002Z,4.48
2022-12-03T22:23:18.267Z,4.44
2022-12-03T22:25:44.533Z,4.52
2022-12-03T22:28:10.777Z,4.48
2022-12-03T22:30:37.237Z,4.48
2022-12-03T22:33:03.529Z,4.46
2022-12-03T22:35:29.791Z,4.48
2022-12-03T22:37:56.037Z,4.44
2022-12-03T22:40:22.275Z,4.47
2022-12-03T22:42:51.119Z,4.63
2022-12-03T22:45:17.553Z,4.54
2022-12-03T22:47:43.826Z,4.58
2022-12-03T22:50:10.087Z,4.69
2022-12-03T22:52:36.356Z,4.68
2022-12-03T22:55:02.597Z,4.82
2022-12-03T22:57:28.841Z,4.71
2022-12-03T22:59:55.308Z,4.78
2022-12-03T23:02:21.799Z,4.74
2022-12-03T23:04:48.050Z,4.68
2022-12-03T23:07:14.301Z,4.62
2022-12-03T23:09:40.562Z,4.68
2022-12-03T23:12:06.818Z,4.67
2022-12-03T23:14:33.096Z,4.67
2022-12-03T23:16:59.370Z,4.61
2022-12-03T23:19:25.614Z,4.69
2022-12-03T23:21:51.884Z,4.66
2022-12-03T23:24:18.122Z,4.57
2022-12-03T23:26:44.371Z,4.63
2022-12-03T23:29:10.633Z,4.57
2022-12-03T23:31:37.003Z,4.48
2022-12-03T23:34:03.375Z,4.52
2022-12-03T23:36:29.741Z,4.63
2022-12-03T23:38:56.026Z,4.64
2022-12-03T23:41:22.282Z,4.65
2022-12-03T23:43:48.534Z,4.57
2022-12-03T23:46:14.876Z,4.52
2022-12-03T23:48:41.247Z,4.58
2022-12-03T23:51:07.510Z,4.62
2022-12-03T23:53:33.763Z,4.55
2022-12-03T23:56:00.007Z,4.58
2022-12-03T23:58:26.282Z,4.54
